sensor_id;sensor_type;location;lat;lon;timestamp;P1;durP1;ratioP1;P2;durP2;ratioP2
68951;SDS011;56000;51.146;17.112;2022-08-01T00:00:55;7.40;;;3.80;;
68951;SDS011;56000;51.146;17.112;2022-08-01T00:03:28;7.10;;;2.80;;
68951;SDS011;56000;51.146;17.112;2022-08-01T00:06:01;5.90;;;2.80;;
68951;SDS011;56000;51.146;17.112;2022-08-01T00:08:34;4.70;;;2.80;;
68951;SDS011;56000;51.146;17.112;2022-08-01T00:11:07;5.30;;;2.80;;
68951;SDS011;56000;51.146;17.112;2022-08-01T00:13:40;7.30;;;2.90;;
68951;SDS011;56000;51.146;17.112;2022-08-01T00:16:13;3.90;;;2.70;;
68951;SDS011;56000;51.146;17.112;2022-08-01T00:18:46;3.90;;;2.30;;
68951;SDS011;56000;51.146;17.112;2022-08-01T00:21:19;4.20;;;2.30;;
68951;SDS011;56000;51.146;17.112;2022-08-01T00:23:52;6.80;;;2.60;;
68951;SDS011;56000;51.146;17.112;2022-08-01T00:26:25;2.90;;;2.30;;
68951;SDS011;56000;51.146;17.112;2022-08-01T00:28:58;2.90;;;2.20;;
68951;SDS011;56000;51.146;17.112;2022-08-01T00:31:40;3.50;;;2.40;;
68951;SDS011;56000;51.146;17.112;2022-08-01T00:34:12;4.50;;;2.30;;
68951;SDS011;56000;51.146;17.112;2022-08-01T00:36:45;4.00;;;2.60;;
68951;SDS011;56000;51.146;17.112;2022-08-01T00:39:18;2.90;;;2.40;;
68951;SDS011;56000;51.146;17.112;2022-08-01T00:41:51;3.70;;;2.40;;
68951;SDS011;56000;51.146;17.112;2022-08-01T00:44:28;4.60;;;2.80;;
68951;SDS011;56000;51.146;17.112;2022-08-01T00:47:01;4.90;;;2.40;;
68951;SDS011;56000;51.146;17.112;2022-08-01T00:49:34;3.30;;;2.70;;
68951;SDS011;56000;51.146;17.112;2022-08-01T00:52:07;7.10;;;3.30;;
68951;SDS011;56000;51.146;17.112;2022-08-01T00:54:41;2.80;;;2.20;;
68951;SDS011;56000;51.146;17.112;2022-08-01T00:57:14;3.30;;;2.70;;
68951;SDS011;56000;51.146;17.112;2022-08-01T01:00:09;3.50;;;2.30;;
68951;SDS011;56000;51.146;17.112;2022-08-01T01:02:43;4.20;;;2.90;;
68951;SDS011;56000;51.146;17.112;2022-08-01T01:05:16;3.60;;;2.50;;
68951;SDS011;56000;51.146;17.112;2022-08-01T01:07:54;3.50;;;2.70;;
68951;SDS011;56000;51.146;17.112;2022-08-01T01:10:35;3.50;;;2.60;;
68951;SDS011;56000;51.146;17.112;2022-08-01T01:13:15;4.10;;;2.80;;
68951;SDS011;56000;51.146;17.112;2022-08-01T01:15:57;5.80;;;2.90;;
68951;SDS011;56000;51.146;17.112;2022-08-01T01:18:40;4.90;;;3.00;;
68951;SDS011;56000;51.146;17.112;2022-08-01T01:21:33;4.90;;;2.70;;
68951;SDS011;56000;51.146;17.112;2022-08-01T01:24:25;4.30;;;3.00;;
68951;SDS011;56000;51.146;17.112;2022-08-01T01:27:09;4.00;;;3.00;;
68951;SDS011;56000;51.146;17.112;2022-08-01T01:29:51;4.50;;;2.90;;
68951;SDS011;56000;51.146;17.112;2022-08-01T01:32:33;5.50;;;2.80;;
68951;SDS011;56000;51.146;17.112;2022-08-01T01:35:13;6.80;;;3.20;;
68951;SDS011;56000;51.146;17.112;2022-08-01T01:37:52;7.60;;;3.00;;
68951;SDS011;56000;51.146;17.112;2022-08-01T01:40:29;6.30;;;3.10;;
68951;SDS011;56000;51.146;17.112;2022-08-01T01:43:03;5.30;;;3.20;;
68951;SDS011;56000;51.146;17.112;2022-08-01T01:45:40;5.80;;;2.90;;
68951;SDS011;56000;51.146;17.112;2022-08-01T01:48:17;5.40;;;2.80;;
68951;SDS011;56000;51.146;17.112;2022-08-01T01:50:51;4.80;;;2.80;;
68951;SDS011;56000;51.146;17.112;2022-08-01T01:53:26;4.30;;;2.90;;
68951;SDS011;56000;51.146;17.112;2022-08-01T01:56:03;4.90;;;3.10;;
68951;SDS011;56000;51.146;17.112;2022-08-01T01:58:36;5.40;;;2.50;;
68951;SDS011;56000;51.146;17.112;2022-08-01T02:01:11;6.50;;;3.20;;
68951;SDS011;56000;51.146;17.112;2022-08-01T02:04:05;5.10;;;2.70;;
68951;SDS011;56000;51.146;17.112;2022-08-01T02:06:40;3.80;;;2.80;;
68951;SDS011;56000;51.146;17.112;2022-08-01T02:09:15;7.70;;;3.30;;
68951;SDS011;56000;51.146;17.112;2022-08-01T02:11:50;7.10;;;3.10;;
68951;SDS011;56000;51.146;17.112;2022-08-01T02:14:37;5.50;;;2.90;;
68951;SDS011;56000;51.146;17.112;2022-08-01T02:17:12;3.60;;;2.80;;
68951;SDS011;56000;51.146;17.112;2022-08-01T02:19:49;3.70;;;2.70;;
68951;SDS011;56000;51.146;17.112;2022-08-01T02:22:27;3.30;;;2.60;;
68951;SDS011;56000;51.146;17.112;2022-08-01T02:25:06;3.10;;;2.60;;
68951;SDS011;56000;51.146;17.112;2022-08-01T02:27:53;3.70;;;2.60;;
68951;SDS011;56000;51.146;17.112;2022-08-01T02:30:33;3.50;;;2.60;;
68951;SDS011;56000;51.146;17.112;2022-08-01T02:33:12;5.50;;;3.20;;
68951;SDS011;56000;51.146;17.112;2022-08-01T02:35:52;5.90;;;2.60;;
68951;SDS011;56000;51.146;17.112;2022-08-01T02:38:48;5.50;;;2.50;;
68951;SDS011;56000;51.146;17.112;2022-08-01T02:41:22;4.90;;;2.40;;
68951;SDS011;56000;51.146;17.112;2022-08-01T02:44:01;5.30;;;3.00;;
68951;SDS011;56000;51.146;17.112;2022-08-01T02:46:39;7.30;;;3.10;;
68951;SDS011;56000;51.146;17.112;2022-08-01T02:49:19;5.10;;;3.10;;
68951;SDS011;56000;51.146;17.112;2022-08-01T02:51:55;5.30;;;3.40;;
68951;SDS011;56000;51.146;17.112;2022-08-01T02:54:29;6.90;;;3.70;;
68951;SDS011;56000;51.146;17.112;2022-08-01T02:57:06;7.10;;;3.40;;
68951;SDS011;56000;51.146;17.112;2022-08-01T02:59:43;8.00;;;3.70;;
68951;SDS011;56000;51.146;17.112;2022-08-01T03:02:18;6.60;;;3.60;;
68951;SDS011;56000;51.146;17.112;2022-08-01T03:04:52;8.30;;;3.50;;
68951;SDS011;56000;51.146;17.112;2022-08-01T03:07:26;8.50;;;3.40;;
68951;SDS011;56000;51.146;17.112;2022-08-01T03:10:09;3.90;;;3.30;;
68951;SDS011;56000;51.146;17.112;2022-08-01T03:12:44;5.30;;;2.80;;
68951;SDS011;56000;51.146;17.112;2022-08-01T03:15:19;4.50;;;3.20;;
68951;SDS011;56000;51.146;17.112;2022-08-01T03:17:55;6.00;;;3.50;;
68951;SDS011;56000;51.146;17.112;2022-08-01T03:20:30;5.00;;;3.30;;
68951;SDS011;56000;51.146;17.112;2022-08-01T03:23:07;3.70;;;3.30;;
68951;SDS011;56000;51.146;17.112;2022-08-01T03:25:43;4.30;;;2.80;;
68951;SDS011;56000;51.146;17.112;2022-08-01T03:28:18;4.80;;;3.10;;
68951;SDS011;56000;51.146;17.112;2022-08-01T03:30:58;9.20;;;3.70;;
68951;SDS011;56000;51.146;17.112;2022-08-01T03:33:32;5.20;;;3.10;;
68951;SDS011;56000;51.146;17.112;2022-08-01T03:36:06;5.40;;;3.30;;
68951;SDS011;56000;51.146;17.112;2022-08-01T03:38:41;4.90;;;2.60;;
68951;SDS011;56000;51.146;17.112;2022-08-01T03:41:18;4.30;;;3.50;;
68951;SDS011;56000;51.146;17.112;2022-08-01T03:43:55;5.50;;;3.40;;
68951;SDS011;56000;51.146;17.112;2022-08-01T03:46:35;4.60;;;3.10;;
68951;SDS011;56000;51.146;17.112;2022-08-01T03:49:14;5.50;;;3.10;;
68951;SDS011;56000;51.146;17.112;2022-08-01T03:51:49;4.70;;;2.90;;
68951;SDS011;56000;51.146;17.112;2022-08-01T03:54:25;4.80;;;2.90;;
68951;SDS011;56000;51.146;17.112;2022-08-01T03:57:02;3.70;;;2.70;;
68951;SDS011;56000;51.146;17.112;2022-08-01T03:59:48;4.60;;;3.00;;
68951;SDS011;56000;51.146;17.112;2022-08-01T04:02:22;3.70;;;2.90;;
68951;SDS011;56000;51.146;17.112;2022-08-01T04:04:56;3.80;;;3.20;;
68951;SDS011;56000;51.146;17.112;2022-08-01T04:07:32;4.20;;;2.80;;
68951;SDS011;56000;51.146;17.112;2022-08-01T04:10:07;7.20;;;3.10;;
68951;SDS011;56000;51.146;17.112;2022-08-01T04:12:40;5.00;;;3.20;;
68951;SDS011;56000;51.146;17.112;2022-08-01T04:15:13;4.00;;;3.10;;
68951;SDS011;56000;51.146;17.112;2022-08-01T04:17:45;5.00;;;3.50;;
68951;SDS011;56000;51.146;17.112;2022-08-01T04:20:19;5.30;;;3.20;;
68951;SDS011;56000;51.146;17.112;2022-08-01T04:22:53;5.30;;;3.20;;
68951;SDS011;56000;51.146;17.112;2022-08-01T04:25:28;4.60;;;2.80;;
68951;SDS011;56000;51.146;17.112;2022-08-01T04:28:05;9.40;;;3.40;;
68951;SDS011;56000;51.146;17.112;2022-08-01T04:30:47;3.60;;;3.20;;
68951;SDS011;56000;51.146;17.112;2022-08-01T04:33:31;4.30;;;2.90;;
68951;SDS011;56000;51.146;17.112;2022-08-01T04:36:07;6.80;;;3.00;;
68951;SDS011;56000;51.146;17.112;2022-08-01T04:38:47;3.40;;;3.00;;
68951;SDS011;56000;51.146;17.112;2022-08-01T04:41:25;3.60;;;3.00;;
68951;SDS011;56000;51.146;17.112;2022-08-01T04:43:59;4.00;;;2.60;;
68951;SDS011;56000;51.146;17.112;2022-08-01T04:46:32;3.40;;;2.70;;
68951;SDS011;56000;51.146;17.112;2022-08-01T04:49:08;2.90;;;2.40;;
68951;SDS011;56000;51.146;17.112;2022-08-01T04:51:53;5.60;;;2.90;;
68951;SDS011;56000;51.146;17.112;2022-08-01T04:54:27;5.70;;;3.00;;
68951;SDS011;56000;51.146;17.112;2022-08-01T04:57:03;5.10;;;2.80;;
68951;SDS011;56000;51.146;17.112;2022-08-01T04:59:37;8.60;;;3.40;;
68951;SDS011;56000;51.146;17.112;2022-08-01T05:02:15;4.20;;;2.90;;
68951;SDS011;56000;51.146;17.112;2022-08-01T05:04:48;5.30;;;3.80;;
68951;SDS011;56000;51.146;17.112;2022-08-01T05:07:21;4.20;;;2.70;;
68951;SDS011;56000;51.146;17.112;2022-08-01T05:09:54;8.40;;;3.30;;
68951;SDS011;56000;51.146;17.112;2022-08-01T05:12:27;7.00;;;3.00;;
68951;SDS011;56000;51.146;17.112;2022-08-01T05:15:01;5.80;;;2.90;;
68951;SDS011;56000;51.146;17.112;2022-08-01T05:17:43;4.00;;;3.00;;
68951;SDS011;56000;51.146;17.112;2022-08-01T05:20:16;4.80;;;2.80;;
68951;SDS011;56000;51.146;17.112;2022-08-01T05:22:49;8.70;;;2.90;;
68951;SDS011;56000;51.146;17.112;2022-08-01T05:25:22;3.20;;;2.70;;
68951;SDS011;56000;51.146;17.112;2022-08-01T05:28:15;3.90;;;2.90;;
68951;SDS011;56000;51.146;17.112;2022-08-01T05:30:48;7.00;;;2.80;;
68951;SDS011;56000;51.146;17.112;2022-08-01T05:33:24;4.60;;;3.10;;
68951;SDS011;56000;51.146;17.112;2022-08-01T05:35:57;5.60;;;3.30;;
68951;SDS011;56000;51.146;17.112;2022-08-01T05:38:30;6.00;;;3.20;;
68951;SDS011;56000;51.146;17.112;2022-08-01T05:41:03;6.80;;;2.90;;
68951;SDS011;56000;51.146;17.112;2022-08-01T05:43:36;5.70;;;3.50;;
68951;SDS011;56000;51.146;17.112;2022-08-01T05:46:09;3.90;;;2.80;;
68951;SDS011;56000;51.146;17.112;2022-08-01T05:48:42;5.50;;;2.90;;
68951;SDS011;56000;51.146;17.112;2022-08-01T05:51:15;5.80;;;3.10;;
68951;SDS011;56000;51.146;17.112;2022-08-01T05:53:48;4.80;;;3.20;;
68951;SDS011;56000;51.146;17.112;2022-08-01T05:56:21;5.40;;;2.90;;
68951;SDS011;56000;51.146;17.112;2022-08-01T05:59:01;4.00;;;2.90;;
68951;SDS011;56000;51.146;17.112;2022-08-01T06:01:34;6.70;;;3.10;;
68951;SDS011;56000;51.146;17.112;2022-08-01T06:04:07;12.00;;;3.80;;
68951;SDS011;56000;51.146;17.112;2022-08-01T06:06:40;4.90;;;3.20;;
68951;SDS011;56000;51.146;17.112;2022-08-01T06:09:12;4.40;;;3.40;;
68951;SDS011;56000;51.146;17.112;2022-08-01T06:11:45;7.20;;;4.10;;
68951;SDS011;56000;51.146;17.112;2022-08-01T06:14:18;9.90;;;4.20;;
68951;SDS011;56000;51.146;17.112;2022-08-01T06:16:51;6.80;;;3.50;;
68951;SDS011;56000;51.146;17.112;2022-08-01T06:19:24;5.20;;;3.30;;
68951;SDS011;56000;51.146;17.112;2022-08-01T06:21:57;9.60;;;3.30;;
68951;SDS011;56000;51.146;17.112;2022-08-01T06:24:30;7.10;;;3.20;;
68951;SDS011;56000;51.146;17.112;2022-08-01T06:27:03;7.00;;;3.80;;
68951;SDS011;56000;51.146;17.112;2022-08-01T06:29:51;6.50;;;3.20;;
68951;SDS011;56000;51.146;17.112;2022-08-01T06:32:24;6.10;;;3.10;;
68951;SDS011;56000;51.146;17.112;2022-08-01T06:34:57;8.30;;;3.60;;
68951;SDS011;56000;51.146;17.112;2022-08-01T06:37:31;3.80;;;3.20;;
68951;SDS011;56000;51.146;17.112;2022-08-01T06:40:06;5.30;;;3.50;;
68951;SDS011;56000;51.146;17.112;2022-08-01T06:42:46;7.90;;;3.70;;
68951;SDS011;56000;51.146;17.112;2022-08-01T06:45:19;10.50;;;4.20;;
68951;SDS011;56000;51.146;17.112;2022-08-01T06:47:54;5.90;;;3.50;;
68951;SDS011;56000;51.146;17.112;2022-08-01T06:50:27;7.90;;;4.00;;
68951;SDS011;56000;51.146;17.112;2022-08-01T06:53:00;7.50;;;3.50;;
68951;SDS011;56000;51.146;17.112;2022-08-01T06:55:33;10.70;;;3.70;;
68951;SDS011;56000;51.146;17.112;2022-08-01T06:58:07;6.50;;;4.00;;
68951;SDS011;56000;51.146;17.112;2022-08-01T07:00:39;4.40;;;3.60;;
68951;SDS011;56000;51.146;17.112;2022-08-01T07:03:12;10.50;;;4.00;;
68951;SDS011;56000;51.146;17.112;2022-08-01T07:05:45;9.50;;;4.00;;
68951;SDS011;56000;51.146;17.112;2022-08-01T07:08:18;8.10;;;3.60;;
68951;SDS011;56000;51.146;17.112;2022-08-01T07:10:52;9.40;;;3.50;;
68951;SDS011;56000;51.146;17.112;2022-08-01T07:13:25;6.40;;;3.40;;
68951;SDS011;56000;51.146;17.112;2022-08-01T07:16:14;5.10;;;3.30;;
68951;SDS011;56000;51.146;17.112;2022-08-01T07:18:47;7.80;;;3.20;;
68951;SDS011;56000;51.146;17.112;2022-08-01T07:21:21;6.00;;;3.00;;
68951;SDS011;56000;51.146;17.112;2022-08-01T07:24:10;6.30;;;2.90;;
68951;SDS011;56000;51.146;17.112;2022-08-01T07:26:47;4.40;;;2.90;;
68951;SDS011;56000;51.146;17.112;2022-08-01T07:29:24;9.80;;;4.20;;
68951;SDS011;56000;51.146;17.112;2022-08-01T07:31:57;8.00;;;3.20;;
68951;SDS011;56000;51.146;17.112;2022-08-01T07:34:32;5.00;;;3.40;;
68951;SDS011;56000;51.146;17.112;2022-08-01T07:37:05;9.70;;;4.00;;
68951;SDS011;56000;51.146;17.112;2022-08-01T07:39:38;7.30;;;3.60;;
68951;SDS011;56000;51.146;17.112;2022-08-01T07:42:11;8.70;;;3.30;;
68951;SDS011;56000;51.146;17.112;2022-08-01T07:44:44;5.60;;;3.20;;
68951;SDS011;56000;51.146;17.112;2022-08-01T07:47:22;5.30;;;3.00;;
68951;SDS011;56000;51.146;17.112;2022-08-01T07:50:00;8.00;;;3.60;;
68951;SDS011;56000;51.146;17.112;2022-08-01T07:52:33;6.60;;;2.90;;
68951;SDS011;56000;51.146;17.112;2022-08-01T07:55:10;4.00;;;2.70;;
68951;SDS011;56000;51.146;17.112;2022-08-01T07:57:45;7.50;;;2.80;;
68951;SDS011;56000;51.146;17.112;2022-08-01T08:00:18;11.10;;;2.90;;
68951;SDS011;56000;51.146;17.112;2022-08-01T08:02:51;3.60;;;2.80;;
68951;SDS011;56000;51.146;17.112;2022-08-01T08:05:24;3.80;;;2.70;;
68951;SDS011;56000;51.146;17.112;2022-08-01T08:08:17;4.70;;;2.80;;
68951;SDS011;56000;51.146;17.112;2022-08-01T08:10:50;3.10;;;2.60;;
68951;SDS011;56000;51.146;17.112;2022-08-01T08:13:23;7.10;;;2.70;;
68951;SDS011;56000;51.146;17.112;2022-08-01T08:15:56;5.60;;;2.90;;
68951;SDS011;56000;51.146;17.112;2022-08-01T08:18:29;6.10;;;2.80;;
68951;SDS011;56000;51.146;17.112;2022-08-01T08:21:03;5.60;;;2.70;;
68951;SDS011;56000;51.146;17.112;2022-08-01T08:23:36;3.30;;;3.00;;
68951;SDS011;56000;51.146;17.112;2022-08-01T08:26:27;3.80;;;2.70;;
68951;SDS011;56000;51.146;17.112;2022-08-01T08:29:00;6.60;;;2.70;;
68951;SDS011;56000;51.146;17.112;2022-08-01T08:31:33;3.40;;;2.90;;
68951;SDS011;56000;51.146;17.112;2022-08-01T08:34:21;9.70;;;2.60;;
68951;SDS011;56000;51.146;17.112;2022-08-01T08:36:55;9.90;;;3.80;;
68951;SDS011;56000;51.146;17.112;2022-08-01T08:39:29;5.90;;;2.90;;
68951;SDS011;56000;51.146;17.112;2022-08-01T08:42:11;6.20;;;2.60;;
68951;SDS011;56000;51.146;17.112;2022-08-01T08:44:44;4.60;;;3.00;;
68951;SDS011;56000;51.146;17.112;2022-08-01T08:47:17;4.90;;;3.00;;
68951;SDS011;56000;51.146;17.112;2022-08-01T08:49:53;5.60;;;2.90;;
68951;SDS011;56000;51.146;17.112;2022-08-01T08:52:27;5.90;;;2.80;;
68951;SDS011;56000;51.146;17.112;2022-08-01T08:55:01;4.20;;;2.70;;
68951;SDS011;56000;51.146;17.112;2022-08-01T08:57:34;3.80;;;2.80;;
68951;SDS011;56000;51.146;17.112;2022-08-01T09:00:12;7.50;;;2.90;;
68951;SDS011;56000;51.146;17.112;2022-08-01T09:02:47;3.30;;;2.60;;
68951;SDS011;56000;51.146;17.112;2022-08-01T09:05:23;5.20;;;2.80;;
68951;SDS011;56000;51.146;17.112;2022-08-01T09:08:09;4.50;;;2.40;;
68951;SDS011;56000;51.146;17.112;2022-08-01T09:10:43;7.30;;;2.80;;
68951;SDS011;56000;51.146;17.112;2022-08-01T09:13:16;3.40;;;2.50;;
68951;SDS011;56000;51.146;17.112;2022-08-01T09:15:50;3.90;;;2.60;;
68951;SDS011;56000;51.146;17.112;2022-08-01T09:18:30;4.90;;;2.60;;
68951;SDS011;56000;51.146;17.112;2022-08-01T09:21:12;4.40;;;2.50;;
68951;SDS011;56000;51.146;17.112;2022-08-01T09:23:49;9.60;;;2.50;;
68951;SDS011;56000;51.146;17.112;2022-08-01T09:26:31;5.30;;;2.40;;
68951;SDS011;56000;51.146;17.112;2022-08-01T09:29:07;3.00;;;2.30;;
68951;SDS011;56000;51.146;17.112;2022-08-01T09:32:07;5.00;;;2.40;;
68951;SDS011;56000;51.146;17.112;2022-08-01T09:34:45;5.10;;;2.30;;
68951;SDS011;56000;51.146;17.112;2022-08-01T09:37:19;5.60;;;2.40;;
68951;SDS011;56000;51.146;17.112;2022-08-01T09:40:15;2.80;;;2.30;;
68951;SDS011;56000;51.146;17.112;2022-08-01T09:42:49;4.70;;;2.40;;
68951;SDS011;56000;51.146;17.112;2022-08-01T09:45:43;4.40;;;2.30;;
68951;SDS011;56000;51.146;17.112;2022-08-01T09:48:20;3.80;;;2.40;;
68951;SDS011;56000;51.146;17.112;2022-08-01T09:50:58;5.50;;;2.20;;
68951;SDS011;56000;51.146;17.112;2022-08-01T09:53:45;4.70;;;2.10;;
68951;SDS011;56000;51.146;17.112;2022-08-01T09:56:22;4.90;;;2.50;;
68951;SDS011;56000;51.146;17.112;2022-08-01T09:58:57;4.10;;;2.30;;
68951;SDS011;56000;51.146;17.112;2022-08-01T10:01:44;5.70;;;2.20;;
68951;SDS011;56000;51.146;17.112;2022-08-01T10:04:21;7.00;;;2.40;;
68951;SDS011;56000;51.146;17.112;2022-08-01T10:07:03;4.70;;;2.50;;
68951;SDS011;56000;51.146;17.112;2022-08-01T10:09:38;4.00;;;2.40;;
68951;SDS011;56000;51.146;17.112;2022-08-01T10:12:12;4.20;;;2.70;;
68951;SDS011;56000;51.146;17.112;2022-08-01T10:14:47;4.60;;;2.90;;
68951;SDS011;56000;51.146;17.112;2022-08-01T10:17:24;6.00;;;2.60;;
68951;SDS011;56000;51.146;17.112;2022-08-01T10:20:17;6.20;;;2.50;;
68951;SDS011;56000;51.146;17.112;2022-08-01T10:23:02;3.20;;;2.30;;
68951;SDS011;56000;51.146;17.112;2022-08-01T10:25:40;2.40;;;2.20;;
68951;SDS011;56000;51.146;17.112;2022-08-01T10:28:17;4.70;;;2.50;;
68951;SDS011;56000;51.146;17.112;2022-08-01T10:30:53;2.70;;;2.30;;
68951;SDS011;56000;51.146;17.112;2022-08-01T10:33:27;4.30;;;2.40;;
68951;SDS011;56000;51.146;17.112;2022-08-01T10:36:22;4.10;;;1.90;;
68951;SDS011;56000;51.146;17.112;2022-08-01T10:38:55;2.70;;;1.90;;
68951;SDS011;56000;51.146;17.112;2022-08-01T10:41:29;5.60;;;2.20;;
68951;SDS011;56000;51.146;17.112;2022-08-01T10:44:04;2.50;;;1.90;;
68951;SDS011;56000;51.146;17.112;2022-08-01T10:46:46;3.00;;;2.20;;
68951;SDS011;56000;51.146;17.112;2022-08-01T10:49:24;4.30;;;2.00;;
68951;SDS011;56000;51.146;17.112;2022-08-01T10:52:01;4.10;;;2.20;;
68951;SDS011;56000;51.146;17.112;2022-08-01T10:54:40;2.40;;;2.00;;
68951;SDS011;56000;51.146;17.112;2022-08-01T10:57:22;3.00;;;2.10;;
68951;SDS011;56000;51.146;17.112;2022-08-01T10:59:56;3.10;;;2.20;;
68951;SDS011;56000;51.146;17.112;2022-08-01T11:02:34;6.50;;;2.20;;
68951;SDS011;56000;51.146;17.112;2022-08-01T11:05:20;4.80;;;2.00;;
68951;SDS011;56000;51.146;17.112;2022-08-01T11:07:57;2.50;;;1.80;;
68951;SDS011;56000;51.146;17.112;2022-08-01T11:10:35;2.60;;;1.90;;
68951;SDS011;56000;51.146;17.112;2022-08-01T11:13:13;2.30;;;1.90;;
68951;SDS011;56000;51.146;17.112;2022-08-01T11:19:01;2.50;;;1.70;;
68951;SDS011;56000;51.146;17.112;2022-08-01T11:21:59;5.00;;;1.90;;
68951;SDS011;56000;51.146;17.112;2022-08-01T11:24:58;4.40;;;1.90;;
68951;SDS011;56000;51.146;17.112;2022-08-01T11:27:32;2.50;;;2.10;;
68951;SDS011;56000;51.146;17.112;2022-08-01T11:30:23;4.70;;;2.50;;
68951;SDS011;56000;51.146;17.112;2022-08-01T11:32:57;5.60;;;2.30;;
68951;SDS011;56000;51.146;17.112;2022-08-01T11:36:15;3.20;;;2.20;;
68951;SDS011;56000;51.146;17.112;2022-08-01T11:39:17;4.00;;;2.40;;
68951;SDS011;56000;51.146;17.112;2022-08-01T11:41:50;8.40;;;2.50;;
68951;SDS011;56000;51.146;17.112;2022-08-01T11:44:25;2.70;;;2.10;;
68951;SDS011;56000;51.146;17.112;2022-08-01T11:47:01;4.60;;;2.30;;
68951;SDS011;56000;51.146;17.112;2022-08-01T11:49:55;3.00;;;2.30;;
68951;SDS011;56000;51.146;17.112;2022-08-01T11:52:30;3.80;;;2.00;;
68951;SDS011;56000;51.146;17.112;2022-08-01T11:55:09;2.60;;;2.40;;
68951;SDS011;56000;51.146;17.112;2022-08-01T11:57:45;6.20;;;2.30;;
68951;SDS011;56000;51.146;17.112;2022-08-01T12:00:19;2.00;;;1.90;;
68951;SDS011;56000;51.146;17.112;2022-08-01T12:02:59;4.10;;;2.40;;
68951;SDS011;56000;51.146;17.112;2022-08-01T12:05:34;4.50;;;2.50;;
68951;SDS011;56000;51.146;17.112;2022-08-01T12:08:12;3.50;;;2.20;;
68951;SDS011;56000;51.146;17.112;2022-08-01T12:10:55;2.30;;;2.00;;
68951;SDS011;56000;51.146;17.112;2022-08-01T12:13:39;5.70;;;2.60;;
68951;SDS011;56000;51.146;17.112;2022-08-01T12:16:13;1.90;;;1.80;;
68951;SDS011;56000;51.146;17.112;2022-08-01T12:18:52;4.90;;;2.20;;
68951;SDS011;56000;51.146;17.112;2022-08-01T12:21:25;4.80;;;1.90;;
68951;SDS011;56000;51.146;17.112;2022-08-01T12:24:03;2.80;;;1.90;;
68951;SDS011;56000;51.146;17.112;2022-08-01T12:26:43;4.40;;;1.80;;
68951;SDS011;56000;51.146;17.112;2022-08-01T12:29:32;6.00;;;2.00;;
68951;SDS011;56000;51.146;17.112;2022-08-01T12:32:22;4.20;;;2.10;;
68951;SDS011;56000;51.146;17.112;2022-08-01T12:35:05;2.70;;;2.00;;
68951;SDS011;56000;51.146;17.112;2022-08-01T12:37:48;3.50;;;2.00;;
68951;SDS011;56000;51.146;17.112;2022-08-01T12:40:23;5.30;;;2.40;;
68951;SDS011;56000;51.146;17.112;2022-08-01T12:43:04;6.10;;;2.60;;
68951;SDS011;56000;51.146;17.112;2022-08-01T12:45:45;2.50;;;1.90;;
68951;SDS011;56000;51.146;17.112;2022-08-01T12:48:26;3.70;;;2.20;;
68951;SDS011;56000;51.146;17.112;2022-08-01T12:51:02;3.30;;;2.00;;
68951;SDS011;56000;51.146;17.112;2022-08-01T12:53:36;3.00;;;1.60;;
68951;SDS011;56000;51.146;17.112;2022-08-01T12:56:11;2.90;;;1.80;;
68951;SDS011;56000;51.146;17.112;2022-08-01T12:58:44;2.80;;;2.00;;
68951;SDS011;56000;51.146;17.112;2022-08-01T13:01:24;4.20;;;2.00;;
68951;SDS011;56000;51.146;17.112;2022-08-01T13:04:03;5.20;;;1.90;;
68951;SDS011;56000;51.146;17.112;2022-08-01T13:06:36;4.10;;;1.90;;
68951;SDS011;56000;51.146;17.112;2022-08-01T13:09:09;3.50;;;2.00;;
68951;SDS011;56000;51.146;17.112;2022-08-01T13:11:43;5.00;;;2.10;;
68951;SDS011;56000;51.146;17.112;2022-08-01T13:14:33;1.90;;;1.80;;
68951;SDS011;56000;51.146;17.112;2022-08-01T13:17:10;2.50;;;2.10;;
68951;SDS011;56000;51.146;17.112;2022-08-01T13:22:35;4.50;;;2.30;;
68951;SDS011;56000;51.146;17.112;2022-08-01T13:25:15;2.80;;;2.20;;
68951;SDS011;56000;51.146;17.112;2022-08-01T13:30:59;5.50;;;2.20;;
68951;SDS011;56000;51.146;17.112;2022-08-01T13:33:43;2.30;;;2.10;;
68951;SDS011;56000;51.146;17.112;2022-08-01T13:36:28;2.30;;;1.90;;
68951;SDS011;56000;51.146;17.112;2022-08-01T13:39:02;3.50;;;2.00;;
68951;SDS011;56000;51.146;17.112;2022-08-01T13:41:53;2.40;;;1.90;;
68951;SDS011;56000;51.146;17.112;2022-08-01T13:44:26;3.40;;;2.10;;
68951;SDS011;56000;51.146;17.112;2022-08-01T13:46:59;3.30;;;2.00;;
68951;SDS011;56000;51.146;17.112;2022-08-01T13:49:45;3.30;;;2.00;;
68951;SDS011;56000;51.146;17.112;2022-08-01T13:52:18;3.40;;;2.00;;
68951;SDS011;56000;51.146;17.112;2022-08-01T13:54:51;3.20;;;1.90;;
68951;SDS011;56000;51.146;17.112;2022-08-01T13:57:24;2.50;;;2.10;;
68951;SDS011;56000;51.146;17.112;2022-08-01T14:00:09;2.80;;;2.00;;
68951;SDS011;56000;51.146;17.112;2022-08-01T14:02:43;2.10;;;1.90;;
68951;SDS011;56000;51.146;17.112;2022-08-01T14:05:16;2.40;;;1.60;;
68951;SDS011;56000;51.146;17.112;2022-08-01T14:07:49;3.10;;;1.90;;
68951;SDS011;56000;51.146;17.112;2022-08-01T14:10:25;1.80;;;1.70;;
68951;SDS011;56000;51.146;17.112;2022-08-01T14:12:59;1.80;;;1.70;;
68951;SDS011;56000;51.146;17.112;2022-08-01T14:15:34;5.60;;;2.00;;
68951;SDS011;56000;51.146;17.112;2022-08-01T14:18:09;4.30;;;1.90;;
68951;SDS011;56000;51.146;17.112;2022-08-01T14:20:44;2.20;;;1.70;;
68951;SDS011;56000;51.146;17.112;2022-08-01T14:23:19;3.60;;;1.60;;
68951;SDS011;56000;51.146;17.112;2022-08-01T14:25:52;3.10;;;1.60;;
68951;SDS011;56000;51.146;17.112;2022-08-01T14:28:34;3.60;;;1.50;;
68951;SDS011;56000;51.146;17.112;2022-08-01T14:31:07;1.50;;;1.40;;
68951;SDS011;56000;51.146;17.112;2022-08-01T14:33:40;6.30;;;1.90;;
68951;SDS011;56000;51.146;17.112;2022-08-01T14:36:13;2.00;;;1.80;;
68951;SDS011;56000;51.146;17.112;2022-08-01T14:38:59;5.20;;;1.90;;
68951;SDS011;56000;51.146;17.112;2022-08-01T14:41:33;2.00;;;1.70;;
68951;SDS011;56000;51.146;17.112;2022-08-01T14:44:06;4.70;;;2.00;;
68951;SDS011;56000;51.146;17.112;2022-08-01T14:46:38;1.90;;;1.80;;
68951;SDS011;56000;51.146;17.112;2022-08-01T14:49:27;2.20;;;1.60;;
68951;SDS011;56000;51.146;17.112;2022-08-01T14:52:00;5.40;;;1.80;;
68951;SDS011;56000;51.146;17.112;2022-08-01T14:54:34;4.40;;;1.50;;
68951;SDS011;56000;51.146;17.112;2022-08-01T14:57:07;3.50;;;1.60;;
68951;SDS011;56000;51.146;17.112;2022-08-01T14:59:40;1.60;;;1.50;;
68951;SDS011;56000;51.146;17.112;2022-08-01T15:02:13;1.80;;;1.70;;
68951;SDS011;56000;51.146;17.112;2022-08-01T15:04:47;1.60;;;1.50;;
68951;SDS011;56000;51.146;17.112;2022-08-01T15:07:20;2.50;;;1.50;;
68951;SDS011;56000;51.146;17.112;2022-08-01T15:09:53;4.50;;;1.40;;
68951;SDS011;56000;51.146;17.112;2022-08-01T15:12:26;1.40;;;1.30;;
68951;SDS011;56000;51.146;17.112;2022-08-01T15:15:19;2.00;;;1.40;;
68951;SDS011;56000;51.146;17.112;2022-08-01T15:17:52;2.70;;;1.60;;
68951;SDS011;56000;51.146;17.112;2022-08-01T15:20:26;1.90;;;1.70;;
68951;SDS011;56000;51.146;17.112;2022-08-01T15:23:00;1.40;;;1.30;;
68951;SDS011;56000;51.146;17.112;2022-08-01T15:25:33;2.10;;;1.60;;
68951;SDS011;56000;51.146;17.112;2022-08-01T15:28:11;1.60;;;1.50;;
68951;SDS011;56000;51.146;17.112;2022-08-01T15:30:44;1.50;;;1.40;;
68951;SDS011;56000;51.146;17.112;2022-08-01T15:33:17;2.20;;;1.30;;
68951;SDS011;56000;51.146;17.112;2022-08-01T15:35:53;1.50;;;1.40;;
68951;SDS011;56000;51.146;17.112;2022-08-01T15:38:27;2.80;;;1.60;;
68951;SDS011;56000;51.146;17.112;2022-08-01T15:41:00;2.10;;;1.50;;